Time;durP1;ratioP1;P1;durP2;ratioP2;P2;SDS_P1;SDS_P2;PMS_P1;PMS_P2;Temp;Humidity;BMP_temperature;BMP_pressure;BME280_temperature;BME280_humidity;BME280_pressure;Samples;Min_cycle;Max_cycle;Signal;HPM_P1;HPM_P2
2023/01/24 00:00:03;;;;;;;11.77;8.50;;;5.10;99.90;;;;;;4910131;29;20223;-73
2023/01/24 00:02:28;;;;;;;14.23;9.80;;;5.10;99.90;;;;;;4911113;29;20242;-73
2023/01/24 00:04:54;;;;;;;12.53;8.90;;;5.20;99.90;;;;;;4913409;29;20664;-73
2023/01/24 00:07:20;;;;;;;16.27;9.67;;;5.20;99.90;;;;;;4912745;29;20571;-73
2023/01/24 00:09:45;;;;;;;12.40;8.10;;;5.20;99.90;;;;;;4901625;29;20528;-73
2023/01/24 00:12:11;;;;;;;13.93;9.80;;;5.20;99.90;;;;;;4898593;29;20188;-73
2023/01/24 00:14:36;;;;;;;13.83;8.90;;;5.20;99.90;;;;;;4900717;29;20200;-74
2023/01/24 00:17:02;;;;;;;9.30;7.90;;;5.20;99.90;;;;;;4902564;29;20233;-75
2023/01/24 00:19:27;;;;;;;13.77;9.10;;;5.30;99.90;;;;;;4903990;29;20195;-73
2023/01/24 00:21:53;;;;;;;13.23;8.57;;;5.20;99.90;;;;;;4905600;29;20200;-73
2023/01/24 00:24:18;;;;;;;12.97;8.30;;;5.20;99.90;;;;;;4907696;29;20188;-73
2023/01/24 00:26:44;;;;;;;13.80;9.00;;;5.20;99.90;;;;;;4909213;29;20343;-71
2023/01/24 00:29:09;;;;;;;11.60;8.73;;;5.20;99.90;;;;;;4910957;29;20547;-71
2023/01/24 00:31:35;;;;;;;12.23;8.70;;;5.30;99.90;;;;;;4911615;29;20728;-72
2023/01/24 00:34:00;;;;;;;11.67;8.73;;;5.20;99.90;;;;;;4914538;29;20195;-73
2023/01/24 00:36:26;;;;;;;14.50;8.63;;;5.20;99.90;;;;;;4916279;29;20197;-72
2023/01/24 00:38:54;;;;;;;11.80;8.70;;;5.20;99.90;;;;;;4918006;29;20191;-73
2023/01/24 00:41:20;;;;;;;13.30;9.60;;;5.20;99.90;;;;;;4917000;29;20207;-73
2023/01/24 00:43:46;;;;;;;13.90;8.20;;;5.20;99.90;;;;;;4902442;29;20440;-72
2023/01/24 00:46:11;;;;;;;11.47;7.83;;;5.10;99.90;;;;;;4904353;29;20275;-73
2023/01/24 00:48:37;;;;;;;12.93;8.60;;;5.10;99.90;;;;;;4905585;29;20220;-73
2023/01/24 00:51:03;;;;;;;12.93;9.20;;;5.20;99.90;;;;;;4907487;29;20275;-73
2023/01/24 00:53:28;;;;;;;13.07;7.57;;;5.30;99.90;;;;;;4908599;29;20192;-73
2023/01/24 00:55:54;;;;;;;12.47;9.33;;;5.20;99.90;;;;;;4910652;29;20434;-73
2023/01/24 00:58:20;;;;;;;12.73;8.43;;;5.10;99.90;;;;;;4912163;29;20239;-73
2023/01/24 01:00:46;;;;;;;12.50;8.10;;;5.20;99.90;;;;;;4913846;29;20851;-72
2023/01/24 01:03:15;;;;;;;13.20;7.43;;;5.20;99.90;;;;;;4915104;29;20443;-73
2023/01/24 01:05:41;;;;;;;11.00;6.80;;;5.30;99.90;;;;;;4917252;29;20206;-73
2023/01/24 01:08:07;;;;;;;15.10;8.70;;;5.40;99.90;;;;;;4917383;29;20519;-70
2023/01/24 01:10:33;;;;;;;11.03;7.20;;;5.40;99.90;;;;;;4908513;29;20425;-71
2023/01/24 01:12:58;;;;;;;13.17;8.73;;;5.40;99.90;;;;;;4903250;29;20441;-71
2023/01/24 01:15:24;;;;;;;9.93;7.50;;;5.30;99.90;;;;;;4903857;29;20318;-70
2023/01/24 01:17:49;;;;;;;13.10;7.50;;;5.30;99.90;;;;;;4906223;29;20280;-71
2023/01/24 01:20:15;;;;;;;11.90;7.27;;;5.30;99.90;;;;;;4908121;29;20198;-70
2023/01/24 01:22:40;;;;;;;11.50;7.60;;;5.30;99.90;;;;;;4909210;29;20186;-70
2023/01/24 01:25:06;;;;;;;10.40;7.70;;;5.20;99.90;;;;;;4904970;29;20197;-71
2023/01/24 01:27:32;;;;;;;10.43;7.40;;;5.10;99.90;;;;;;4903159;29;20256;-71
2023/01/24 01:29:57;;;;;;;11.13;7.50;;;5.20;99.90;;;;;;4901794;29;20629;-71
2023/01/24 01:32:23;;;;;;;9.03;6.67;;;5.10;99.90;;;;;;4899992;29;20239;-71
2023/01/24 01:34:48;;;;;;;12.27;7.20;;;5.10;99.90;;;;;;4899302;29;20203;-72
2023/01/24 01:37:14;;;;;;;9.97;6.10;;;5.10;99.90;;;;;;4900645;29;20199;-70
2023/01/24 01:39:39;;;;;;;9.90;7.30;;;5.00;99.90;;;;;;4902022;29;20201;-70
2023/01/24 01:42:05;;;;;;;12.03;8.33;;;5.10;99.90;;;;;;4903790;29;20195;-70
2023/01/24 01:44:41;;;;;;;11.97;7.70;;;5.10;99.90;;;;;;4904978;29;20194;-70
2023/01/24 01:47:27;;;;;;;9.20;5.90;;;5.10;99.90;;;;;;4908138;29;20549;-71
2023/01/24 01:50:13;;;;;;;8.93;6.83;;;5.10;99.90;;;;;;4907725;29;20797;-70
2023/01/24 01:52:41;;;;;;;7.70;6.60;;;5.20;99.90;;;;;;4910789;29;20435;-72
2023/01/24 01:55:12;;;;;;;8.50;7.67;;;5.10;99.90;;;;;;4903024;29;20464;-72
2023/01/24 01:57:40;;;;;;;9.17;6.90;;;5.10;99.90;;;;;;4900967;29;20539;-72
2023/01/24 02:00:15;;;;;;;8.67;6.43;;;5.10;99.90;;;;;;4899693;29;20777;-72
2023/01/24 02:02:46;;;;;;;8.23;6.27;;;5.10;99.90;;;;;;4898856;29;20452;-72
2023/01/24 02:05:15;;;;;;;10.27;6.87;;;5.20;99.90;;;;;;4901620;29;20791;-72
2023/01/24 02:07:43;;;;;;;9.93;7.20;;;5.10;99.90;;;;;;4912922;29;20502;-72
2023/01/24 02:10:10;;;;;;;12.70;7.70;;;5.10;99.90;;;;;;4905997;29;20439;-72
2023/01/24 02:12:41;;;;;;;8.57;5.83;;;5.10;99.90;;;;;;4905530;29;20432;-72
2023/01/24 02:17:59;;;;;;;9.50;6.97;;;5.20;99.90;;;;;;4905497;29;20432;-72
2023/01/24 02:20:45;;;;;;;8.30;6.10;;;5.10;99.90;;;;;;4903603;29;20441;-72
2023/01/24 02:23:24;;;;;;;8.43;6.60;;;5.10;99.90;;;;;;4902036;29;20880;-72
2023/01/24 02:25:50;;;;;;;10.43;6.53;;;5.20;99.90;;;;;;4900227;29;20928;-72
2023/01/24 02:28:16;;;;;;;9.83;6.20;;;5.30;99.90;;;;;;4908723;29;20482;-72
2023/01/24 02:30:42;;;;;;;11.57;6.97;;;5.20;99.90;;;;;;4915789;29;20231;-72
2023/01/24 02:33:19;;;;;;;8.60;5.60;;;5.20;99.90;;;;;;4914042;29;20939;-72
2023/01/24 02:35:46;;;;;;;7.90;6.00;;;5.20;99.90;;;;;;4902703;29;20188;-72
2023/01/24 02:38:28;;;;;;;9.73;6.97;;;5.20;99.90;;;;;;4903879;29;21069;-72
2023/01/24 02:41:06;;;;;;;11.00;6.20;;;5.20;99.90;;;;;;4908452;29;20462;-73
2023/01/24 02:43:34;;;;;;;8.77;6.60;;;5.20;99.90;;;;;;4908232;29;20446;-74
2023/01/24 02:45:59;;;;;;;10.70;7.33;;;5.30;99.90;;;;;;4891044;29;20534;-72
2023/01/24 02:48:24;;;;;;;7.83;7.03;;;5.20;99.90;;;;;;4910836;29;20467;-72
2023/01/24 02:53:34;;;;;;;8.20;6.50;;;5.10;99.90;;;;;;4914769;29;20784;-72
2023/01/24 02:58:46;;;;;;;7.10;5.40;;;5.00;99.90;;;;;;4899328;29;20698;-72
2023/01/24 03:01:14;;;;;;;11.43;7.40;;;5.00;99.90;;;;;;4900766;29;20433;-70
2023/01/24 03:03:41;;;;;;;8.17;5.90;;;5.10;99.90;;;;;;4902591;29;20192;-70
2023/01/24 03:06:07;;;;;;;8.90;6.60;;;5.00;99.90;;;;;;4904264;29;20468;-70
2023/01/24 03:08:34;;;;;;;9.90;6.90;;;5.00;99.90;;;;;;4906685;29;20503;-70
2023/01/24 03:11:00;;;;;;;9.33;6.27;;;5.00;99.90;;;;;;4907603;29;20195;-72
2023/01/24 03:35:22;;;;;;;9.53;7.30;;;5.00;99.90;;;;;;4911333;29;20466;-72
2023/01/24 03:40:32;;;;;;;9.83;6.43;;;4.90;99.90;;;;;;4908692;29;20491;-72
2023/01/24 05:30:34;;;;;;;11.30;7.40;;;5.00;99.90;;;;;;5865582;23;20446;-72
2023/01/24 05:32:59;;;;;;;14.40;9.43;;;5.00;99.90;;;;;;4912495;29;20847;-72
2023/01/24 05:35:25;;;;;;;10.50;8.83;;;5.00;99.90;;;;;;4901641;29;20207;-72
2023/01/24 05:37:50;;;;;;;13.17;9.97;;;5.10;99.90;;;;;;4899616;29;20235;-76
2023/01/24 05:40:16;;;;;;;14.10;8.97;;;5.10;99.90;;;;;;4898145;29;20196;-72
2023/01/24 05:42:42;;;;;;;12.57;8.90;;;4.90;99.90;;;;;;4899371;29;20195;-76
2023/01/24 05:45:09;;;;;;;10.40;7.73;;;5.00;99.90;;;;;;4900866;29;20195;-72
2023/01/24 05:47:35;;;;;;;13.13;9.00;;;5.00;99.90;;;;;;4898172;29;20475;-73
2023/01/24 05:50:00;;;;;;;13.20;8.60;;;5.00;99.90;;;;;;4881927;29;20474;-73
2023/01/24 05:52:26;;;;;;;13.63;9.40;;;5.10;99.90;;;;;;4908003;29;20377;-74
2023/01/24 05:54:52;;;;;;;15.27;10.20;;;5.10;99.90;;;;;;4905770;29;20279;-73
2023/01/24 05:57:18;;;;;;;10.60;8.33;;;5.20;99.90;;;;;;4904126;29;20669;-72
2023/01/24 05:59:43;;;;;;;12.73;8.83;;;5.10;99.90;;;;;;4903068;29;20188;-73
2023/01/24 06:02:09;;;;;;;12.97;9.07;;;5.10;99.90;;;;;;4901147;29;20792;-73
2023/01/24 06:04:35;;;;;;;15.57;9.60;;;5.00;99.90;;;;;;4899524;29;20192;-73
2023/01/24 06:07:00;;;;;;;12.70;9.13;;;5.10;99.90;;;;;;4904095;29;20659;-73
2023/01/24 06:09:26;;;;;;;11.40;8.60;;;5.20;99.90;;;;;;4912089;29;20628;-73
2023/01/24 06:11:52;;;;;;;13.57;9.97;;;5.20;99.90;;;;;;4895233;29;20222;-73
2023/01/24 06:14:17;;;;;;;13.53;8.57;;;5.00;99.90;;;;;;4912494;29;20539;-73
2023/01/24 06:16:44;;;;;;;12.20;7.73;;;5.00;99.90;;;;;;4912407;29;20254;-72
2023/01/24 06:19:14;;;;;;;11.90;8.70;;;5.10;99.90;;;;;;4913176;29;20723;-73
2023/01/24 06:21:54;;;;;;;9.23;7.80;;;5.10;99.90;;;;;;4889093;29;20439;-74
2023/01/24 06:24:25;;;;;;;11.43;7.33;;;5.20;99.90;;;;;;4913001;29;20904;-72
2023/01/24 06:26:51;;;;;;;12.13;8.33;;;5.20;99.90;;;;;;4913791;29;20439;-73
2023/01/24 06:29:19;;;;;;;11.50;8.70;;;5.10;99.90;;;;;;4902418;29;20448;-73
2023/01/24 06:31:54;;;;;;;11.57;7.90;;;5.00;99.90;;;;;;4896610;29;20507;-73
2023/01/24 06:34:43;;;;;;;10.97;8.50;;;5.10;99.90;;;;;;4903323;29;20451;-72
2023/01/24 06:37:32;;;;;;;10.70;8.10;;;5.00;99.90;;;;;;4901289;29;20441;-73
2023/01/24 06:39:58;;;;;;;10.43;8.30;;;5.10;99.90;;;;;;4910828;29;20441;-73
2023/01/24 06:42:24;;;;;;;12.43;7.10;;;5.00;99.90;;;;;;4909669;29;20459;-73
2023/01/24 06:44:49;;;;;;;10.33;7.60;;;5.10;99.90;;;;;;4908929;29;20630;-73
2023/01/24 06:47:15;;;;;;;14.53;7.90;;;5.10;99.90;;;;;;4897235;29;20311;-73
2023/01/24 06:49:43;;;;;;;11.80;8.13;;;5.20;99.90;;;;;;4904631;29;20223;-74
2023/01/24 06:52:08;;;;;;;11.90;7.93;;;5.30;99.90;;;;;;4909573;29;20543;-74
2023/01/24 06:54:35;;;;;;;10.00;8.03;;;5.30;99.90;;;;;;4908559;29;20523;-74
2023/01/24 06:57:02;;;;;;;11.57;7.83;;;5.20;99.90;;;;;;4906831;29;20179;-74
2023/01/24 06:59:27;;;;;;;10.60;7.37;;;5.00;99.90;;;;;;4909724;29;20453;-74
2023/01/24 07:01:53;;;;;;;12.70;8.90;;;5.00;99.90;;;;;;4896933;29;20443;-72
2023/01/24 07:04:18;;;;;;;10.47;7.47;;;5.00;99.90;;;;;;4909209;29;20192;-75
2023/01/24 07:06:44;;;;;;;11.87;7.30;;;5.00;99.90;;;;;;4911495;29;20248;-76
2023/01/24 07:09:10;;;;;;;10.10;6.43;;;5.00;99.90;;;;;;4916424;29;20222;-76
2023/01/24 07:11:36;;;;;;;8.30;7.50;;;5.00;99.90;;;;;;4917192;29;20262;-76
2023/01/24 07:14:01;;;;;;;9.87;6.50;;;5.10;99.90;;;;;;4915625;29;21022;-77
2023/01/24 07:16:27;;;;;;;9.03;6.60;;;5.20;99.90;;;;;;4919008;29;20176;-77
2023/01/24 07:18:53;;;;;;;11.00;7.90;;;5.10;99.90;;;;;;4917489;29;20190;-76
2023/01/24 07:21:19;;;;;;;7.67;6.20;;;5.10;99.90;;;;;;4917332;29;20195;-75
2023/01/24 07:23:46;;;;;;;8.60;6.80;;;5.10;99.90;;;;;;4917339;29;20172;-76
2023/01/24 07:26:12;;;;;;;8.70;5.47;;;5.10;99.90;;;;;;4914465;29;20181;-72
2023/01/24 07:28:38;;;;;;;9.73;6.72;;;5.00;99.90;;;;;;4903237;29;20464;-75
2023/01/24 07:31:04;;;;;;;12.07;6.57;;;5.00;99.90;;;;;;4900905;29;20722;-76
2023/01/24 07:33:29;;;;;;;8.80;6.37;;;5.20;99.90;;;;;;4902921;29;20436;-76
2023/01/24 07:35:55;;;;;;;8.47;6.40;;;5.20;99.90;;;;;;4904465;29;20281;-76
2023/01/24 07:38:21;;;;;;;8.57;5.73;;;5.20;99.90;;;;;;4906137;29;20184;-75
2023/01/24 07:40:46;;;;;;;13.20;5.73;;;5.10;99.90;;;;;;4907932;29;20968;-76
2023/01/24 07:43:12;;;;;;;6.90;5.70;;;5.10;99.90;;;;;;4909966;29;20217;-76
2023/01/24 07:45:38;;;;;;;8.23;6.47;;;5.20;99.90;;;;;;4909869;29;20191;-75
2023/01/24 07:48:06;;;;;;;10.33;7.40;;;5.10;99.90;;;;;;4911211;29;20542;-76
2023/01/24 07:50:32;;;;;;;10.20;7.23;;;5.00;99.90;;;;;;4913713;29;20274;-74
2023/01/24 07:52:58;;;;;;;11.17;6.43;;;5.00;99.90;;;;;;4915837;29;20526;-76
2023/01/24 07:55:24;;;;;;;8.97;6.00;;;5.10;99.90;;;;;;4917963;29;20431;-76
2023/01/24 07:57:50;;;;;;;8.07;6.17;;;5.10;99.90;;;;;;4902727;29;20448;-75
2023/01/24 08:00:16;;;;;;;10.60;7.07;;;5.10;99.90;;;;;;4900086;29;20838;-76
2023/01/24 08:02:43;;;;;;;8.13;6.30;;;5.10;99.90;;;;;;4901751;29;20188;-75
2023/01/24 08:05:09;;;;;;;9.70;7.00;;;5.20;99.90;;;;;;4903784;29;20453;-77
2023/01/24 08:07:36;;;;;;;6.83;5.90;;;5.10;99.90;;;;;;4910009;29;20590;-76
2023/01/24 08:10:02;;;;;;;7.73;6.03;;;5.20;99.90;;;;;;4906230;29;20436;-77
2023/01/24 08:12:28;;;;;;;7.30;5.93;;;5.20;99.90;;;;;;4906033;29;20491;-76
2023/01/24 08:14:53;;;;;;;8.70;6.47;;;5.00;99.90;;;;;;4905516;29;20469;-76
2023/01/24 08:17:19;;;;;;;10.23;6.90;;;4.90;99.90;;;;;;4903992;29;20575;-75
2023/01/24 08:19:44;;;;;;;6.63;5.30;;;4.90;99.90;;;;;;4901915;29;20195;-74
2023/01/24 08:22:10;;;;;;;11.50;8.07;;;4.90;99.90;;;;;;4900989;29;20188;-75
2023/01/24 08:24:35;;;;;;;8.00;6.77;;;4.90;99.90;;;;;;4899736;29;20604;-74
2023/01/24 08:27:02;;;;;;;10.60;6.00;;;4.90;99.90;;;;;;4902022;29;20602;-75
2023/01/24 08:29:28;;;;;;;9.47;6.57;;;4.90;99.90;;;;;;4902713;29;20674;-75
2023/01/24 08:31:54;;;;;;;8.27;6.00;;;5.00;99.90;;;;;;4904458;29;20566;-76
2023/01/24 08:34:20;;;;;;;9.60;6.60;;;4.90;99.90;;;;;;4910982;29;20811;-76
2023/01/24 08:36:46;;;;;;;9.03;6.10;;;5.00;99.90;;;;;;4909213;29;20445;-76
2023/01/24 08:39:11;;;;;;;7.90;6.57;;;5.10;99.90;;;;;;4909698;29;20212;-76
2023/01/24 08:41:37;;;;;;;8.43;6.57;;;5.10;99.90;;;;;;4899443;29;20660;-76
2023/01/24 08:44:04;;;;;;;9.43;6.70;;;5.10;99.90;;;;;;4905342;29;20228;-76
2023/01/24 08:46:30;;;;;;;12.20;7.07;;;5.00;99.90;;;;;;4914072;29;20193;-76
2023/01/24 08:48:56;;;;;;;10.97;8.10;;;5.10;99.90;;;;;;4915738;29;20921;-76
2023/01/24 08:51:21;;;;;;;9.83;6.53;;;5.10;99.90;;;;;;4917342;29;20468;-77
2023/01/24 08:53:47;;;;;;;8.13;6.60;;;5.10;99.90;;;;;;4916413;29;20206;-78
2023/01/24 08:56:13;;;;;;;10.33;7.10;;;5.00;99.90;;;;;;4914525;29;20192;-76
2023/01/24 08:58:38;;;;;;;8.50;6.57;;;4.90;99.90;;;;;;4903037;29;20202;-76
2023/01/24 09:01:08;;;;;;;8.80;6.53;;;4.90;99.90;;;;;;4905142;29;20524;-77
2023/01/24 09:03:35;;;;;;;10.20;8.40;;;5.00;99.90;;;;;;4906729;29;20668;-77
2023/01/24 09:06:00;;;;;;;11.17;6.93;;;5.00;99.90;;;;;;4908333;29;20439;-77
2023/01/24 09:08:26;;;;;;;9.63;7.33;;;5.00;99.90;;;;;;4910092;29;20483;-77
2023/01/24 09:10:52;;;;;;;11.07;7.23;;;5.00;99.90;;;;;;4911638;29;20232;-76
2023/01/24 09:13:18;;;;;;;10.43;7.83;;;5.10;99.90;;;;;;4913060;29;20439;-76
2023/01/24 09:15:43;;;;;;;9.90;8.00;;;5.10;99.90;;;;;;4914967;29;20195;-75
2023/01/24 09:18:09;;;;;;;8.80;7.10;;;5.10;99.90;;;;;;4916634;29;20254;-75
2023/01/24 09:20:35;;;;;;;12.27;7.80;;;5.20;99.90;;;;;;4916221;29;20645;-75
2023/01/24 09:23:07;;;;;;;10.70;7.80;;;5.20;99.90;;;;;;4914039;29;20647;-73
2023/01/24 09:25:32;;;;;;;8.80;6.30;;;5.10;99.90;;;;;;4912375;29;20180;-74
2023/01/24 09:27:58;;;;;;;10.80;8.50;;;5.10;99.90;;;;;;4913122;29;20485;-74
2023/01/24 09:30:23;;;;;;;13.30;8.63;;;5.10;99.90;;;;;;4913863;29;20446;-75
2023/01/24 09:32:50;;;;;;;11.10;8.43;;;5.10;99.90;;;;;;4915634;29;20947;-76
2023/01/24 09:35:16;;;;;;;12.00;8.83;;;5.00;99.90;;;;;;4913612;29;20204;-77
2023/01/24 09:37:42;;;;;;;12.00;7.87;;;5.00;99.90;;;;;;4891569;29;20533;-78
2023/01/24 09:40:26;;;;;;;10.63;8.13;;;4.90;99.90;;;;;;4912408;29;20180;-79
2023/01/24 09:43:00;;;;;;;10.37;8.97;;;5.00;99.90;;;;;;4913095;29;20976;-80
2023/01/24 09:45:41;;;;;;;10.00;8.33;;;5.00;99.90;;;;;;4907092;29;20503;-82
2023/01/24 09:48:12;;;;;;;8.77;7.83;;;5.00;99.90;;;;;;4909824;29;20534;-80
2023/01/24 09:50:48;;;;;;;10.37;7.20;;;5.10;99.90;;;;;;4880226;29;20506;-80
2023/01/24 09:53:26;;;;;;;9.97;8.43;;;5.10;99.90;;;;;;4912205;29;20432;-74
2023/01/24 09:55:52;;;;;;;12.00;8.90;;;5.00;99.90;;;;;;4911498;29;20432;-75
2023/01/24 09:58:36;;;;;;;14.10;9.33;;;5.10;99.90;;;;;;4914960;29;20451;-75
2023/01/24 10:01:12;;;;;;;11.53;9.43;;;5.20;99.90;;;;;;4914129;29;20518;-76
2023/01/24 10:03:39;;;;;;;9.47;8.20;;;5.20;99.90;;;;;;4913388;29;20519;-75
2023/01/24 10:06:12;;;;;;;11.13;7.93;;;5.30;99.90;;;;;;4912759;29;20436;-76
2023/01/24 10:08:43;;;;;;;11.40;8.23;;;5.20;99.90;;;;;;4910774;29;20470;-76
2023/01/24 10:11:36;;;;;;;9.67;8.10;;;5.30;99.90;;;;;;4907191;29;20431;-75
2023/01/24 10:14:23;;;;;;;13.60;9.50;;;5.20;99.90;;;;;;4904044;29;20462;-74
2023/01/24 10:17:09;;;;;;;11.10;8.73;;;5.20;99.90;;;;;;4910194;29;20445;-74
2023/01/24 10:19:52;;;;;;;13.10;9.83;;;5.10;99.90;;;;;;4910279;29;20839;-74
2023/01/24 10:22:24;;;;;;;11.10;7.87;;;5.10;99.90;;;;;;4902357;29;20439;-75
2023/01/24 10:24:59;;;;;;;11.97;9.23;;;5.10;99.90;;;;;;4908175;29;20444;-74
2023/01/24 10:27:30;;;;;;;10.00;8.03;;;5.30;99.90;;;;;;4906487;29;20491;-74
2023/01/24 10:30:01;;;;;;;10.87;8.60;;;5.10;99.90;;;;;;4904761;29;20844;-75
2023/01/24 10:32:32;;;;;;;12.20;9.30;;;5.10;99.90;;;;;;4905490;29;20832;-74
2023/01/24 10:35:02;;;;;;;13.23;9.60;;;5.20;99.90;;;;;;4909697;29;20478;-74
2023/01/24 10:37:37;;;;;;;12.37;10.53;;;5.10;99.90;;;;;;4907649;29;20518;-74
2023/01/24 10:40:14;;;;;;;13.20;8.27;;;5.20;99.90;;;;;;4896013;29;20932;-74
2023/01/24 10:42:40;;;;;;;12.17;8.80;;;5.20;99.90;;;;;;4896793;29;20942;-73
2023/01/24 10:45:29;;;;;;;11.80;8.53;;;5.20;99.90;;;;;;4911079;29;20455;-73
2023/01/24 10:48:20;;;;;;;12.77;9.43;;;5.10;99.90;;;;;;4911334;29;20208;-74
2023/01/24 10:50:45;;;;;;;14.10;9.53;;;5.10;99.90;;;;;;4896014;29;20931;-73
2023/01/24 10:53:25;;;;;;;12.20;8.93;;;5.20;99.90;;;;;;4905061;29;20440;-73
2023/01/24 10:56:12;;;;;;;12.20;9.47;;;5.20;99.90;;;;;;4905405;29;20567;-74
2023/01/24 10:58:40;;;;;;;12.43;9.70;;;5.30;99.90;;;;;;4903026;29;20444;-74
2023/01/24 11:01:20;;;;;;;12.90;9.83;;;5.20;99.90;;;;;;4901864;29;20416;-74
2023/01/24 11:03:49;;;;;;;14.90;10.70;;;5.20;99.90;;;;;;4899711;29;20444;-74
2023/01/24 11:06:37;;;;;;;12.47;9.70;;;5.20;99.90;;;;;;4897685;29;20447;-74
2023/01/24 11:09:11;;;;;;;14.40;10.93;;;5.20;99.90;;;;;;4911415;29;20479;-76
2023/01/24 11:11:50;;;;;;;16.53;10.30;;;5.30;99.90;;;;;;4912927;29;20862;-74
2023/01/24 11:14:20;;;;;;;15.10;10.30;;;5.40;99.90;;;;;;4911118;29;20947;-74
2023/01/24 11:16:51;;;;;;;15.33;10.47;;;5.50;99.90;;;;;;4909177;29;20420;-76
2023/01/24 11:19:28;;;;;;;15.10;10.57;;;5.40;99.90;;;;;;4913332;29;20998;-77
2023/01/24 11:21:57;;;;;;;13.27;10.47;;;5.40;99.90;;;;;;4911764;29;20424;-78
2023/01/24 11:24:24;;;;;;;12.33;10.37;;;5.40;99.90;;;;;;4913504;29;20795;-77
2023/01/24 11:27:19;;;;;;;11.90;9.73;;;5.50;99.90;;;;;;4913192;29;20450;-78
2023/01/24 11:30:03;;;;;;;12.60;9.53;;;5.60;99.90;;;;;;4911267;29;20568;-78
2023/01/24 11:33:01;;;;;;;14.07;9.00;;;5.70;99.90;;;;;;4898189;29;20480;-79
2023/01/24 11:35:34;;;;;;;13.20;10.40;;;5.70;99.90;;;;;;4896661;29;20436;-75
2023/01/24 11:38:20;;;;;;;12.67;10.20;;;5.60;99.90;;;;;;4898326;29;20444;-78
2023/01/24 11:41:20;;;;;;;11.73;10.10;;;5.50;99.90;;;;;;4899801;29;20443;-76
2023/01/24 11:44:12;;;;;;;10.80;9.60;;;5.60;99.90;;;;;;4907274;29;20805;-76
2023/01/24 11:47:03;;;;;;;10.27;9.00;;;5.70;99.90;;;;;;4907437;29;20431;-77
2023/01/24 11:49:51;;;;;;;11.77;9.17;;;5.80;99.90;;;;;;4911036;29;20443;-76
2023/01/24 11:52:43;;;;;;;12.20;10.57;;;5.70;99.90;;;;;;4912593;29;20474;-76
2023/01/24 11:55:24;;;;;;;9.73;8.73;;;5.70;99.90;;;;;;4909184;29;20799;-76
2023/01/24 11:57:57;;;;;;;10.90;9.10;;;5.70;99.90;;;;;;4908015;29;20445;-76
2023/01/24 12:00:32;;;;;;;12.47;9.83;;;5.70;99.90;;;;;;4901256;29;20524;-76
2023/01/24 12:03:23;;;;;;;10.23;8.90;;;5.70;99.90;;;;;;4909014;29;20957;-76
2023/01/24 12:06:03;;;;;;;12.93;10.13;;;5.70;99.90;;;;;;4916370;29;20439;-76
2023/01/24 12:08:53;;;;;;;11.50;9.40;;;5.80;99.90;;;;;;4914379;29;20486;-76
2023/01/24 12:11:37;;;;;;;10.43;9.00;;;5.80;99.90;;;;;;4916011;29;20838;-76
2023/01/24 12:14:18;;;;;;;14.80;9.53;;;5.90;99.90;;;;;;4915881;29;20519;-77
2023/01/24 12:16:54;;;;;;;13.17;9.43;;;5.90;99.90;;;;;;4916371;29;20428;-76
2023/01/24 12:20:05;;;;;;;13.33;10.33;;;5.90;99.90;;;;;;4916351;29;20924;-77
2023/01/24 12:22:32;;;;;;;10.83;9.33;;;5.90;99.90;;;;;;4897875;29;20447;-76
2023/01/24 12:25:05;;;;;;;12.70;9.60;;;5.80;99.90;;;;;;4913401;29;20441;-75
2023/01/24 12:27:35;;;;;;;12.13;10.57;;;5.80;99.90;;;;;;4911907;29;20562;-76
2023/01/24 12:30:29;;;;;;;10.43;8.90;;;5.60;99.90;;;;;;4908907;29;20451;-76
2023/01/24 12:33:03;;;;;;;11.80;9.43;;;5.50;99.90;;;;;;4910009;29;20456;-75
2023/01/24 12:35:37;;;;;;;10.23;7.70;;;5.50;99.90;;;;;;4913256;29;20432;-74
2023/01/24 12:38:27;;;;;;;13.97;9.10;;;5.50;99.90;;;;;;4914322;29;20907;-74
2023/01/24 12:40:58;;;;;;;11.67;9.43;;;5.50;99.90;;;;;;4914777;29;20428;-73
2023/01/24 12:43:45;;;;;;;11.90;9.17;;;5.50;99.90;;;;;;4916270;29;20503;-74
2023/01/24 12:46:18;;;;;;;12.10;8.90;;;5.50;99.90;;;;;;4897790;29;20447;-73
2023/01/24 12:49:09;;;;;;;10.63;8.37;;;5.60;99.90;;;;;;4911216;29;20490;-74
2023/01/24 12:51:42;;;;;;;12.10;8.93;;;5.60;99.90;;;;;;4914604;29;20807;-73
2023/01/24 12:54:25;;;;;;;15.33;8.87;;;5.60;99.90;;;;;;4913376;29;20444;-73
2023/01/24 12:57:23;;;;;;;9.67;8.20;;;5.60;99.90;;;;;;4910791;29;20516;-72
2023/01/24 12:59:50;;;;;;;12.67;8.80;;;5.70;99.90;;;;;;4860630;29;20496;-74
2023/01/24 13:02:40;;;;;;;8.47;7.20;;;5.80;99.90;;;;;;4914098;29;20447;-73
2023/01/24 13:05:21;;;;;;;10.70;7.73;;;5.90;99.90;;;;;;4910121;29;20827;-73
2023/01/24 13:08:03;;;;;;;11.75;9.80;;;5.80;99.90;;;;;;4913648;29;20453;-77
2023/01/24 13:10:43;;;;;;;11.43;8.30;;;5.80;99.90;;;;;;4913692;29;20212;-75
2023/01/24 13:13:20;;;;;;;9.17;8.00;;;5.90;99.90;;;;;;4909103;29;20431;-76
2023/01/24 13:16:11;;;;;;;9.60;8.20;;;5.80;99.90;;;;;;4906665;29;20448;-77
2023/01/24 13:19:01;;;;;;;10.10;7.70;;;5.90;99.90;;;;;;4901131;29;20448;-77
2023/01/24 13:21:45;;;;;;;10.70;8.17;;;5.90;99.90;;;;;;4910965;29;20434;-78
2023/01/24 13:24:22;;;;;;;11.97;7.67;;;6.00;99.90;;;;;;4917151;29;20431;-76
2023/01/24 13:26:59;;;;;;;9.87;8.10;;;5.90;99.90;;;;;;4916496;29;20930;-78
2023/01/24 13:29:53;;;;;;;9.67;7.70;;;6.00;99.90;;;;;;4914704;29;20562;-77
2023/01/24 13:32:20;;;;;;;10.67;8.23;;;5.90;99.90;;;;;;4898188;29;20832;-77
2023/01/24 13:34:50;;;;;;;9.80;8.10;;;5.80;99.90;;;;;;4905627;29;20444;-78
2023/01/24 13:37:32;;;;;;;10.73;8.40;;;5.90;99.90;;;;;;4907408;29;20439;-80
2023/01/24 13:40:18;;;;;;;12.60;9.00;;;5.90;99.90;;;;;;4907250;29;20529;-77
2023/01/24 13:42:44;;;;;;;9.43;7.73;;;5.90;99.90;;;;;;4905372;29;20433;-77
2023/01/24 13:45:36;;;;;;;9.50;7.93;;;5.80;99.90;;;;;;4904926;29;20448;-76
2023/01/24 13:48:27;;;;;;;9.90;8.17;;;5.80;99.90;;;;;;4903100;29;20310;-76
2023/01/24 13:51:28;;;;;;;11.50;9.00;;;5.80;99.90;;;;;;4908315;29;20807;-77
2023/01/24 13:54:15;;;;;;;11.40;7.80;;;5.70;99.90;;;;;;4899497;29;20514;-76
2023/01/24 13:57:10;;;;;;;9.03;8.00;;;5.70;99.90;;;;;;4901655;29;20445;-76
2023/01/24 13:59:41;;;;;;;11.33;8.17;;;5.80;99.90;;;;;;4903091;29;20444;-78
2023/01/24 14:02:28;;;;;;;9.77;7.90;;;5.80;99.90;;;;;;4903984;29;20491;-78
2023/01/24 14:04:53;;;;;;;17.03;9.10;;;5.80;99.90;;;;;;4907708;29;20480;-78
2023/01/24 14:07:37;;;;;;;10.30;7.73;;;5.80;99.90;;;;;;4906170;29;20498;-77
2023/01/24 14:10:05;;;;;;;11.00;8.13;;;5.80;99.90;;;;;;4903870;29;20748;-74
2023/01/24 14:12:36;;;;;;;10.23;8.33;;;5.80;99.90;;;;;;4900672;29;20955;-76
2023/01/24 14:15:29;;;;;;;8.83;7.77;;;5.60;99.90;;;;;;4912007;29;20482;-76
2023/01/24 14:17:55;;;;;;;9.13;7.97;;;5.60;99.90;;;;;;4896641;29;21051;-74
2023/01/24 14:20:38;;;;;;;9.50;7.17;;;5.50;99.90;;;;;;4910744;29;20531;-77
2023/01/24 14:23:14;;;;;;;10.83;8.33;;;5.50;99.90;;;;;;4912610;29;20447;-73
2023/01/24 14:25:49;;;;;;;9.43;8.00;;;5.30;99.90;;;;;;4904372;29;20528;-73
2023/01/24 14:28:32;;;;;;;9.83;8.47;;;5.30;99.90;;;;;;4907868;29;20853;-77
2023/01/24 14:31:02;;;;;;;14.27;9.40;;;5.30;99.90;;;;;;4903362;29;20508;-77
2023/01/24 14:33:36;;;;;;;11.03;7.47;;;5.30;99.90;;;;;;4905214;29;20445;-76
2023/01/24 14:36:29;;;;;;;10.40;8.50;;;5.30;99.90;;;;;;4905181;29;20444;-77
2023/01/24 14:39:24;;;;;;;9.20;7.97;;;5.30;99.90;;;;;;4900807;29;20445;-74
2023/01/24 14:42:13;;;;;;;9.43;7.97;;;5.30;99.90;;;;;;4898960;29;20435;-74
2023/01/24 14:44:49;;;;;;;11.30;9.20;;;5.30;99.90;;;;;;4891269;29;20455;-74
2023/01/24 14:47:22;;;;;;;9.00;7.63;;;5.30;99.90;;;;;;4894648;29;20438;-73
2023/01/24 14:50:00;;;;;;;9.50;7.73;;;5.30;99.90;;;;;;4906182;29;20450;-74
2023/01/24 14:52:29;;;;;;;9.57;8.13;;;5.30;99.90;;;;;;4897249;29;20448;-75
2023/01/24 14:54:57;;;;;;;8.57;7.70;;;5.40;99.90;;;;;;4900168;29;20443;-74
2023/01/24 14:57:31;;;;;;;12.47;8.77;;;5.40;99.90;;;;;;4902360;29;20440;-74
2023/01/24 15:00:11;;;;;;;10.30;7.63;;;5.40;99.90;;;;;;4904203;29;20981;-74
2023/01/24 15:02:56;;;;;;;10.60;7.40;;;5.40;99.90;;;;;;4906009;29;20423;-76
2023/01/24 15:05:48;;;;;;;13.00;7.90;;;5.30;99.90;;;;;;4906039;29;21033;-75
2023/01/24 15:08:16;;;;;;;11.23;7.87;;;5.40;99.90;;;;;;4897549;29;20490;-81
2023/01/24 15:10:42;;;;;;;8.50;7.50;;;5.40;99.90;;;;;;4908424;29;20528;-76
2023/01/24 15:13:18;;;;;;;13.43;7.73;;;5.40;99.90;;;;;;4878720;29;20479;-77
2023/01/24 15:15:43;;;;;;;10.70;8.60;;;5.40;99.90;;;;;;4895970;29;20440;-76
2023/01/24 15:18:32;;;;;;;12.60;8.07;;;5.40;99.90;;;;;;4897365;29;20428;-77
2023/01/24 15:20:59;;;;;;;9.23;7.80;;;5.50;99.90;;;;;;4900864;29;20192;-78
2023/01/24 15:23:28;;;;;;;12.77;7.93;;;5.60;99.90;;;;;;4902637;29;20428;-77
2023/01/24 15:25:54;;;;;;;9.90;7.33;;;5.40;99.90;;;;;;4905434;29;20432;-78
2023/01/24 15:28:30;;;;;;;9.93;7.20;;;5.30;99.90;;;;;;4909741;29;21115;-78
2023/01/24 15:30:57;;;;;;;9.40;7.40;;;5.40;99.90;;;;;;4907407;29;20270;-76
2023/01/24 15:33:23;;;;;;;9.27;8.37;;;5.40;99.90;;;;;;4905749;29;20796;-77
2023/01/24 15:35:50;;;;;;;8.70;7.60;;;5.30;99.90;;;;;;4904052;29;20943;-77